Time;durP1;ratioP1;P1;durP2;ratioP2;P2;SDS_P1;SDS_P2;PMS_P1;PMS_P2;Temp;Humidity;BMP_temperature;BMP_pressure;BME280_temperature;BME280_humidity;BME280_pressure;Samples;Min_cycle;Max_cycle;Signal;HPM_P1;HPM_P2
2023/03/26 00:01:55;;;;;;;8.03;2.77;;;7.20;99.90;;;;;;5075723;28;20171;-79
2023/03/26 00:04:24;;;;;;;5.00;2.83;;;7.10;99.90;;;;;;5041624;28;20206;-79
2023/03/26 00:06:50;;;;;;;5.63;3.57;;;7.10;99.90;;;;;;5075505;28;20175;-80
2023/03/26 00:09:16;;;;;;;3.83;2.10;;;7.10;99.90;;;;;;5075612;28;20178;-80
2023/03/26 00:11:45;;;;;;;4.47;3.60;;;7.00;99.90;;;;;;5041188;28;20206;-79
2023/03/26 00:14:12;;;;;;;7.77;3.40;;;7.00;99.90;;;;;;5040939;28;20183;-80
2023/03/26 00:16:40;;;;;;;4.70;3.10;;;7.00;99.90;;;;;;5057451;28;20180;-80
2023/03/26 00:19:06;;;;;;;5.67;3.10;;;7.00;99.90;;;;;;5075238;28;20201;-80
2023/03/26 00:21:33;;;;;;;3.27;2.27;;;7.00;99.90;;;;;;5075112;28;20252;-79
2023/03/26 00:24:05;;;;;;;4.50;2.60;;;7.00;99.90;;;;;;5040597;28;20276;-80
2023/03/26 00:26:36;;;;;;;6.80;3.73;;;6.90;99.90;;;;;;5075305;28;20168;-80
2023/03/26 00:29:02;;;;;;;3.67;2.57;;;6.90;99.90;;;;;;5057453;28;20535;-80
2023/03/26 00:31:29;;;;;;;3.73;2.47;;;6.90;99.90;;;;;;5057324;28;20609;-80
2023/03/26 00:33:55;;;;;;;6.27;2.73;;;6.80;99.90;;;;;;5056989;28;20179;-80
2023/03/26 00:36:24;;;;;;;3.20;2.17;;;6.80;99.90;;;;;;5074974;28;20171;-80
2023/03/26 00:38:51;;;;;;;4.80;2.93;;;6.80;99.90;;;;;;5057251;28;20256;-79
2023/03/26 00:41:24;;;;;;;7.10;2.87;;;6.70;99.90;;;;;;5075034;28;20203;-80
2023/03/26 00:43:55;;;;;;;2.20;2.00;;;6.70;99.90;;;;;;5074915;28;20195;-80
2023/03/26 00:46:23;;;;;;;6.13;3.10;;;6.60;99.90;;;;;;5075054;28;20250;-80
2023/03/26 00:48:49;;;;;;;5.53;3.23;;;6.60;99.90;;;;;;5074825;28;20183;-80
2023/03/26 00:51:16;;;;;;;2.80;2.40;;;6.60;99.90;;;;;;5074650;28;20184;-80
2023/03/26 00:53:46;;;;;;;4.30;2.30;;;6.60;99.90;;;;;;5074838;28;20179;-80
2023/03/26 00:56:12;;;;;;;6.67;3.53;;;6.60;99.90;;;;;;5056806;28;20183;-80
2023/03/26 00:58:38;;;;;;;3.70;2.70;;;6.60;99.90;;;;;;5056889;28;20202;-80
2023/03/26 01:01:07;;;;;;;6.83;3.30;;;6.70;99.90;;;;;;5056642;28;20625;-80
2023/03/26 01:03:35;;;;;;;7.70;3.87;;;6.60;99.90;;;;;;5074674;28;20289;-79
2023/03/26 01:06:06;;;;;;;3.53;3.07;;;6.60;99.90;;;;;;5056230;28;20210;-78
2023/03/26 01:08:44;;;;;;;3.30;3.00;;;6.60;99.90;;;;;;5056578;28;20179;-81
2023/03/26 01:11:14;;;;;;;7.60;3.30;;;6.60;99.90;;;;;;5074156;28;20622;-80
2023/03/26 01:13:48;;;;;;;7.47;3.00;;;6.60;99.90;;;;;;5056590;28;20175;-79
2023/03/26 01:16:38;;;;;;;5.13;2.90;;;6.60;99.90;;;;;;5074112;28;20621;-79
2023/03/26 01:19:12;;;;;;;8.00;3.77;;;6.60;99.90;;;;;;5055023;28;20219;-79
2023/03/26 01:21:38;;;;;;;6.00;2.60;;;6.60;99.90;;;;;;5074427;28;20273;-80
2023/03/26 01:24:08;;;;;;;5.50;2.87;;;6.70;99.90;;;;;;5039455;28;20302;-80
2023/03/26 01:26:39;;;;;;;4.50;3.53;;;6.60;99.90;;;;;;5056167;28;20183;-80
2023/03/26 01:29:11;;;;;;;5.97;3.27;;;6.60;99.90;;;;;;5056072;28;20277;-81
2023/03/26 01:31:47;;;;;;;3.73;3.07;;;6.60;99.90;;;;;;5056218;28;20179;-81
2023/03/26 01:34:49;;;;;;;6.17;3.00;;;6.60;99.90;;;;;;5073848;28;20178;-81
2023/03/26 01:37:46;;;;;;;10.20;3.77;;;6.60;99.90;;;;;;5073801;28;20171;-79
2023/03/26 01:40:48;;;;;;;3.30;2.50;;;6.60;99.90;;;;;;5073610;28;20178;-79
2023/03/26 01:43:36;;;;;;;2.93;2.03;;;6.50;99.90;;;;;;5069798;28;20218;-80
2023/03/26 01:46:06;;;;;;;4.43;3.37;;;6.50;99.90;;;;;;5073712;28;20256;-80
2023/03/26 01:48:39;;;;;;;6.27;3.03;;;6.50;99.90;;;;;;5073375;28;20159;-79
2023/03/26 01:51:05;;;;;;;3.50;2.50;;;6.50;99.90;;;;;;5073486;28;20240;-81
2023/03/26 01:53:33;;;;;;;13.03;3.53;;;6.50;99.90;;;;;;5055675;28;20175;-80
2023/03/26 01:56:05;;;;;;;3.67;3.10;;;6.40;99.90;;;;;;5073583;28;20236;-79
2023/03/26 01:58:46;;;;;;;5.10;3.07;;;6.40;99.90;;;;;;5073587;28;20171;-80
2023/03/26 02:01:31;;;;;;;4.73;2.57;;;6.40;99.90;;;;;;5055575;28;20206;-80
2023/03/26 02:04:12;;;;;;;3.63;2.90;;;6.40;99.90;;;;;;5073574;28;20191;-80
2023/03/26 02:06:46;;;;;;;3.43;2.90;;;6.40;99.90;;;;;;5055790;28;20179;-80
2023/03/26 02:09:19;;;;;;;2.83;2.23;;;6.40;99.90;;;;;;5073388;28;20165;-80
2023/03/26 02:11:47;;;;;;;7.50;3.10;;;6.40;99.90;;;;;;5073542;28;20616;-79
2023/03/26 02:14:14;;;;;;;4.30;2.77;;;6.30;99.90;;;;;;5073208;28;20657;-80
2023/03/26 02:16:39;;;;;;;5.17;3.47;;;6.30;99.90;;;;;;5055703;28;20171;-80
2023/03/26 02:19:14;;;;;;;6.40;2.43;;;6.30;99.90;;;;;;5073170;28;20544;-80
2023/03/26 02:21:40;;;;;;;4.23;2.57;;;6.30;99.90;;;;;;5073519;28;20222;-80
2023/03/26 02:24:08;;;;;;;4.87;2.97;;;6.20;99.90;;;;;;5055211;28;20272;-80
2023/03/26 02:26:36;;;;;;;3.80;2.43;;;6.30;99.90;;;;;;5055006;28;20663;-80
2023/03/26 02:29:02;;;;;;;3.23;2.20;;;6.30;99.90;;;;;;5055177;28;20705;-80
2023/03/26 02:31:28;;;;;;;8.50;3.17;;;6.30;99.90;;;;;;5055233;28;20180;-79
2023/03/26 02:33:55;;;;;;;4.33;2.97;;;6.20;99.90;;;;;;5055201;28;20278;-80
2023/03/26 02:36:25;;;;;;;6.97;3.27;;;6.20;99.90;;;;;;5073020;28;20167;-80
2023/03/26 02:38:52;;;;;;;4.93;3.20;;;6.10;99.90;;;;;;5072946;28;20639;-80
2023/03/26 02:41:18;;;;;;;3.70;2.00;;;6.10;99.90;;;;;;5055049;28;20206;-80
2023/03/26 02:43:44;;;;;;;3.70;2.27;;;6.10;99.90;;;;;;5055192;28;20663;-79
2023/03/26 02:46:10;;;;;;;3.47;2.33;;;6.10;99.90;;;;;;5073083;28;20191;-80
2023/03/26 02:48:35;;;;;;;4.73;3.03;;;6.10;99.90;;;;;;5054914;28;20184;-80
2023/03/26 02:51:02;;;;;;;5.13;2.50;;;6.10;99.90;;;;;;5055174;28;20632;-80
2023/03/26 02:53:30;;;;;;;7.90;2.80;;;6.10;99.90;;;;;;5072796;28;20207;-80
2023/03/26 02:55:57;;;;;;;6.87;3.40;;;6.10;99.90;;;;;;5072897;28;20179;-80
2023/03/26 02:58:25;;;;;;;5.27;3.50;;;6.10;99.90;;;;;;5072764;28;20179;-80
2023/03/26 03:00:54;;;;;;;2.37;2.17;;;6.10;99.90;;;;;;5058090;28;20270;-80
2023/03/26 03:03:24;;;;;;;4.23;2.50;;;6.10;99.90;;;;;;5076579;28;20721;-80
2023/03/26 03:05:51;;;;;;;14.97;3.40;;;6.10;99.90;;;;;;5042291;28;20203;-80
2023/03/26 03:08:18;;;;;;;6.70;3.00;;;6.10;99.90;;;;;;5076617;28;20190;-79
2023/03/26 03:10:55;;;;;;;5.77;2.93;;;6.10;99.90;;;;;;5076688;28;20197;-80
2023/03/26 03:13:20;;;;;;;5.10;2.83;;;6.10;99.90;;;;;;5042128;28;20197;-79
2023/03/26 03:15:46;;;;;;;2.77;1.93;;;6.10;99.90;;;;;;5058672;28;20604;-79
2023/03/26 03:18:12;;;;;;;4.80;2.53;;;6.10;99.90;;;;;;5042296;28;20262;-79
2023/03/26 03:20:37;;;;;;;3.60;3.13;;;6.00;99.90;;;;;;5076105;28;20184;-80
2023/03/26 03:23:03;;;;;;;4.90;2.40;;;6.00;99.90;;;;;;5058849;28;20207;-80
2023/03/26 03:25:29;;;;;;;5.67;2.53;;;6.00;99.90;;;;;;5058475;28;20194;-80
2023/03/26 03:27:54;;;;;;;4.47;2.30;;;5.90;99.90;;;;;;5076425;28;20624;-80
2023/03/26 03:30:20;;;;;;;6.40;2.67;;;5.90;99.90;;;;;;5058377;28;20186;-80
2023/03/26 03:32:46;;;;;;;4.10;2.97;;;5.80;99.90;;;;;;5076520;28;20186;-80
2023/03/26 03:35:11;;;;;;;6.37;2.70;;;5.90;99.90;;;;;;5076285;28;20253;-80
2023/03/26 03:37:37;;;;;;;4.57;2.83;;;5.80;99.90;;;;;;5058078;28;20279;-80
2023/03/26 03:40:07;;;;;;;5.23;2.33;;;5.80;99.90;;;;;;5058441;28;20290;-80
2023/03/26 03:42:32;;;;;;;7.17;2.73;;;5.80;99.90;;;;;;5041537;28;20278;-80
2023/03/26 03:44:58;;;;;;;4.73;2.27;;;5.80;99.90;;;;;;5058167;28;20708;-80
2023/03/26 03:47:24;;;;;;;5.40;2.57;;;5.80;99.90;;;;;;5041300;28;20705;-80
2023/03/26 03:49:50;;;;;;;4.00;2.37;;;5.80;99.90;;;;;;5076027;28;20217;-79
2023/03/26 03:52:17;;;;;;;7.60;3.33;;;5.80;99.90;;;;;;5058178;28;20180;-80
2023/03/26 03:54:42;;;;;;;6.83;2.77;;;5.80;99.90;;;;;;5041449;28;20862;-80
2023/03/26 03:57:08;;;;;;;5.17;2.83;;;5.70;99.90;;;;;;5041323;28;20270;-79
2023/03/26 03:59:33;;;;;;;3.30;2.33;;;5.70;99.90;;;;;;5057710;28;20694;-80
2023/03/26 04:01:59;;;;;;;4.77;2.80;;;5.70;99.90;;;;;;5058157;28;20175;-80
2023/03/26 04:04:25;;;;;;;6.10;2.57;;;5.70;99.90;;;;;;5057545;28;20211;-80
2023/03/26 04:06:51;;;;;;;4.00;2.57;;;5.70;99.90;;;;;;5041168;28;20636;-80
2023/03/26 04:09:17;;;;;;;3.00;2.50;;;5.70;99.90;;;;;;5057817;28;20179;-79
2023/03/26 04:11:43;;;;;;;6.73;2.53;;;5.70;99.90;;;;;;5056930;28;20679;-80
2023/03/26 04:14:09;;;;;;;6.20;3.10;;;5.70;99.90;;;;;;5057784;28;20183;-79
2023/03/26 04:16:35;;;;;;;2.53;2.23;;;5.70;99.90;;;;;;5040826;28;20180;-79
2023/03/26 04:19:01;;;;;;;3.03;1.80;;;5.70;99.90;;;;;;5057779;28;20210;-80
2023/03/26 04:21:29;;;;;;;3.37;2.53;;;5.70;99.90;;;;;;5056990;28;20231;-80
2023/03/26 04:23:55;;;;;;;2.63;1.70;;;5.80;99.90;;;;;;5057589;28;20211;-80
2023/03/26 04:26:21;;;;;;;4.17;2.67;;;5.80;99.90;;;;;;5075576;28;20636;-79
2023/03/26 04:28:55;;;;;;;3.10;2.30;;;5.70;99.90;;;;;;5057073;28;20640;-80
2023/03/26 04:31:23;;;;;;;2.93;2.23;;;5.80;99.90;;;;;;5075337;28;20171;-80
2023/03/26 04:33:54;;;;;;;2.43;2.13;;;5.70;99.90;;;;;;5075097;28;20654;-79
2023/03/26 04:36:26;;;;;;;4.17;2.20;;;5.70;99.90;;;;;;5075145;28;20174;-79
2023/03/26 04:38:52;;;;;;;6.73;2.50;;;5.80;99.90;;;;;;5074988;28;20240;-80
2023/03/26 04:41:19;;;;;;;4.83;2.40;;;5.80;99.90;;;;;;5075076;28;20176;-79
2023/03/26 04:43:49;;;;;;;3.13;2.00;;;5.80;99.90;;;;;;5056752;28;20242;-80
2023/03/26 04:46:22;;;;;;;3.77;2.37;;;5.90;99.90;;;;;;5075187;28;20170;-80
2023/03/26 04:48:52;;;;;;;8.00;1.80;;;5.90;99.90;;;;;;5056822;28;20206;-80
2023/03/26 04:51:21;;;;;;;2.57;2.37;;;5.90;99.90;;;;;;5074795;28;20258;-80
2023/03/26 04:53:52;;;;;;;2.83;2.20;;;5.90;99.90;;;;;;5074358;28;20193;-80
2023/03/26 04:56:42;;;;;;;2.87;2.00;;;6.00;99.90;;;;;;5074821;28;20209;-79
2023/03/26 04:59:12;;;;;;;2.40;1.87;;;6.00;99.90;;;;;;5074749;28;20176;-79
2023/03/26 05:01:39;;;;;;;3.87;2.47;;;6.00;99.90;;;;;;5074479;28;20174;-80
2023/03/26 05:04:04;;;;;;;3.60;2.40;;;6.00;99.90;;;;;;5074506;28;20269;-80
2023/03/26 05:06:33;;;;;;;1.83;1.60;;;6.00;99.90;;;;;;5056381;28;20644;-80
2023/03/26 05:09:00;;;;;;;2.27;1.70;;;6.10;99.90;;;;;;5056844;28;20219;-80
2023/03/26 05:11:26;;;;;;;4.43;2.60;;;6.20;99.90;;;;;;5056509;28;20183;-80
2023/03/26 05:13:52;;;;;;;5.13;3.37;;;6.20;99.90;;;;;;5056188;28;20281;-80
2023/03/26 05:16:18;;;;;;;4.07;2.60;;;6.20;99.90;;;;;;5056423;28;20274;-80
2023/03/26 05:18:45;;;;;;;5.13;2.23;;;6.30;99.90;;;;;;5074099;28;20681;-79
2023/03/26 05:21:11;;;;;;;3.90;2.20;;;6.30;99.90;;;;;;5036476;28;20227;-80
2023/03/26 05:23:37;;;;;;;3.33;2.00;;;6.30;99.90;;;;;;5035151;28;20577;-81
2023/03/26 05:26:03;;;;;;;3.23;2.00;;;6.30;99.90;;;;;;5036755;28;20196;-80
2023/03/26 05:28:28;;;;;;;5.33;2.20;;;6.40;99.90;;;;;;5036383;28;20649;-80
2023/03/26 05:30:54;;;;;;;3.90;2.27;;;6.40;99.90;;;;;;5053870;28;20191;-79
2023/03/26 05:33:20;;;;;;;9.27;3.63;;;6.40;99.90;;;;;;5054127;28;20198;-80
2023/03/26 05:35:48;;;;;;;3.37;2.50;;;6.40;99.90;;;;;;5052665;28;20182;-80
2023/03/26 05:38:14;;;;;;;3.73;2.03;;;6.40;99.90;;;;;;5052623;28;20192;-80
2023/03/26 05:40:39;;;;;;;2.97;2.53;;;6.40;99.90;;;;;;5053788;28;20211;-81
2023/03/26 05:43:05;;;;;;;3.33;1.97;;;6.40;99.90;;;;;;5053768;28;20235;-80
2023/03/26 05:45:31;;;;;;;4.00;2.10;;;6.40;99.90;;;;;;5053129;28;20191;-79
2023/03/26 05:47:56;;;;;;;3.50;2.33;;;6.40;99.90;;;;;;5053598;28;20176;-79
2023/03/26 05:50:22;;;;;;;4.53;3.07;;;6.40;99.90;;;;;;5053871;28;20180;-80
2023/03/26 05:52:47;;;;;;;3.10;2.30;;;6.50;99.90;;;;;;5052470;28;20187;-79
2023/03/26 05:55:13;;;;;;;2.73;2.03;;;6.60;99.90;;;;;;5019547;28;20186;-80
2023/03/26 05:57:40;;;;;;;4.60;2.70;;;6.60;99.90;;;;;;5053754;28;20191;-80
2023/03/26 06:00:10;;;;;;;4.70;3.10;;;6.70;99.90;;;;;;5052337;28;20667;-79
2023/03/26 06:02:36;;;;;;;4.27;2.63;;;6.70;99.90;;;;;;5053412;28;20242;-80
2023/03/26 06:05:03;;;;;;;5.87;3.30;;;6.80;99.90;;;;;;5063163;28;20572;-80
2023/03/26 06:07:30;;;;;;;3.53;2.33;;;6.80;99.90;;;;;;5053540;28;20185;-79
2023/03/26 06:09:55;;;;;;;4.97;2.77;;;6.80;99.90;;;;;;5051658;28;20182;-80
2023/03/26 06:12:21;;;;;;;2.40;2.07;;;6.70;99.90;;;;;;5052601;28;20270;-80
2023/03/26 06:14:47;;;;;;;2.57;2.03;;;6.70;99.90;;;;;;5034510;28;20717;-79
2023/03/26 06:17:13;;;;;;;8.03;2.30;;;6.80;99.90;;;;;;5034652;28;20294;-80
2023/03/26 06:19:38;;;;;;;2.70;1.97;;;6.70;99.90;;;;;;5045944;28;20785;-80
2023/03/26 06:22:04;;;;;;;4.10;2.57;;;6.70;99.90;;;;;;5029039;28;20740;-80
2023/03/26 06:24:30;;;;;;;4.07;2.10;;;6.80;99.90;;;;;;5029677;28;20208;-82
2023/03/26 06:26:56;;;;;;;5.57;2.50;;;6.70;99.90;;;;;;5013017;28;20196;-80
2023/03/26 06:29:22;;;;;;;2.03;1.63;;;6.80;99.90;;;;;;5012089;28;20632;-80
2023/03/26 06:31:47;;;;;;;2.13;1.57;;;6.90;99.90;;;;;;5026216;28;20609;-80
2023/03/26 06:34:13;;;;;;;2.17;1.83;;;6.90;99.90;;;;;;5020792;28;20201;-82
2023/03/26 06:36:39;;;;;;;3.03;2.10;;;6.90;99.90;;;;;;5029388;28;20679;-81
2023/03/26 06:39:04;;;;;;;6.57;2.47;;;7.00;99.90;;;;;;5029815;28;20250;-81
2023/03/26 06:41:33;;;;;;;8.93;2.63;;;7.10;99.90;;;;;;5029443;28;20192;-80
2023/03/26 06:43:59;;;;;;;5.90;2.77;;;7.20;99.90;;;;;;5030470;28;20699;-80
2023/03/26 06:46:25;;;;;;;3.57;2.10;;;7.30;99.90;;;;;;5025272;28;20200;-80
2023/03/26 06:48:51;;;;;;;3.77;2.47;;;7.30;99.90;;;;;;5021765;28;20264;-80
2023/03/26 06:51:17;;;;;;;4.57;2.70;;;7.40;99.90;;;;;;5014330;28;20185;-81
2023/03/26 06:53:42;;;;;;;5.50;2.33;;;7.40;99.90;;;;;;5026275;28;20283;-80
2023/03/26 06:56:08;;;;;;;3.43;1.97;;;7.50;99.90;;;;;;5029053;28;21001;-80
2023/03/26 06:58:34;;;;;;;4.33;2.80;;;7.50;99.90;;;;;;5001744;28;20192;-80
2023/03/26 07:01:00;;;;;;;1.73;1.57;;;7.60;99.90;;;;;;5014238;28;20356;-81
2023/03/26 07:03:26;;;;;;;6.73;3.57;;;7.70;99.90;;;;;;5022058;28;20221;-81
2023/03/26 07:05:51;;;;;;;4.97;2.13;;;7.70;99.90;;;;;;5022021;28;20193;-82
2023/03/26 07:08:17;;;;;;;5.60;2.67;;;7.80;99.90;;;;;;5025336;28;20624;-81
2023/03/26 07:10:43;;;;;;;7.07;2.27;;;7.80;99.90;;;;;;5009673;28;20223;-81
2023/03/26 07:13:09;;;;;;;5.03;2.60;;;7.90;99.90;;;;;;4993367;28;20280;-81
2023/03/26 07:15:34;;;;;;;3.60;2.33;;;7.90;99.90;;;;;;5028301;28;20653;-84
2023/03/26 07:18:00;;;;;;;7.00;1.83;;;8.00;99.90;;;;;;5029481;28;20199;-82
2023/03/26 07:20:26;;;;;;;2.90;1.93;;;8.20;99.90;;;;;;5031825;28;20199;-82
2023/03/26 07:22:52;;;;;;;7.93;3.07;;;8.20;99.90;;;;;;5054820;28;20247;-82
2023/03/26 07:25:19;;;;;;;3.03;1.80;;;8.40;99.90;;;;;;5069198;28;20201;-83
2023/03/26 07:28:05;;;;;;;3.37;2.43;;;8.40;99.90;;;;;;5057312;28;20266;-80
2023/03/26 07:30:55;;;;;;;5.67;2.50;;;8.50;99.90;;;;;;5069119;28;20175;-81
2023/03/26 07:33:43;;;;;;;4.00;2.37;;;8.40;99.90;;;;;;5038985;28;20233;-81
2023/03/26 07:36:18;;;;;;;1.83;1.70;;;8.40;99.90;;;;;;5051827;28;20218;-81
2023/03/26 07:39:05;;;;;;;7.90;2.33;;;8.30;99.90;;;;;;5051254;28;20183;-81
2023/03/26 07:41:51;;;;;;;5.40;2.10;;;8.30;99.90;;;;;;5068064;28;20210;-80
2023/03/26 07:44:44;;;;;;;2.83;2.03;;;8.30;99.90;;;;;;5040524;28;20202;-81
2023/03/26 07:47:27;;;;;;;2.67;1.70;;;8.30;99.90;;;;;;5064151;28;20274;-81
2023/03/26 07:49:56;;;;;;;2.43;2.17;;;8.40;99.90;;;;;;5061114;28;20459;-82
2023/03/26 07:52:22;;;;;;;2.40;1.80;;;8.50;99.90;;;;;;5035535;28;20271;-81
2023/03/26 07:54:48;;;;;;;1.63;1.53;;;8.50;99.90;;;;;;5014810;28;20202;-82
2023/03/26 07:57:43;;;;;;;2.73;1.67;;;8.60;99.90;;;;;;5072764;28;20205;-82
2023/03/26 08:00:34;;;;;;;2.77;1.93;;;8.60;99.90;;;;;;5072735;28;20171;-81
2023/03/26 08:03:44;;;;;;;3.30;2.20;;;8.60;99.90;;;;;;5066407;28;20253;-81
2023/03/26 08:06:41;;;;;;;3.63;2.37;;;8.60;99.90;;;;;;4987908;28;20659;-81
2023/03/26 08:09:19;;;;;;;3.90;2.10;;;8.70;99.90;;;;;;5040238;28;20313;-82
2023/03/26 08:12:08;;;;;;;3.10;2.03;;;8.90;99.90;;;;;;5074091;28;20190;-80
2023/03/26 08:14:47;;;;;;;4.43;2.40;;;9.00;99.90;;;;;;5052897;28;20572;-82
2023/03/26 08:17:18;;;;;;;2.43;2.10;;;9.00;99.90;;;;;;5068518;28;20163;-80
2023/03/26 08:20:00;;;;;;;6.10;2.07;;;9.10;99.90;;;;;;5055850;28;20175;-80
2023/03/26 08:22:33;;;;;;;3.67;1.80;;;9.30;99.90;;;;;;5055216;28;20621;-80
2023/03/26 08:25:07;;;;;;;3.73;2.10;;;9.30;99.90;;;;;;5072110;28;20163;-81
2023/03/26 08:27:46;;;;;;;3.83;2.00;;;9.30;99.90;;;;;;5071573;28;20269;-80
2023/03/26 08:30:20;;;;;;;4.03;2.37;;;9.20;99.90;;;;;;5056400;28;20218;-80
2023/03/26 08:32:56;;;;;;;4.27;2.30;;;9.10;99.90;;;;;;5074046;28;20175;-80
2023/03/26 08:35:23;;;;;;;10.37;1.90;;;9.20;99.90;;;;;;5052261;28;20174;-80
2023/03/26 08:37:49;;;;;;;3.30;2.20;;;9.30;99.90;;;;;;5073765;28;20182;-80
2023/03/26 08:40:35;;;;;;;4.90;2.27;;;9.40;99.90;;;;;;5055653;28;20175;-82
2023/03/26 08:43:51;;;;;;;4.70;2.23;;;9.40;99.90;;;;;;5072316;28;20801;-81
2023/03/26 08:46:54;;;;;;;3.10;1.80;;;9.50;99.90;;;;;;5031107;28;20274;-81
2023/03/26 08:49:34;;;;;;;3.50;2.30;;;9.60;99.90;;;;;;5055754;28;20183;-79
2023/03/26 08:52:31;;;;;;;3.70;1.87;;;9.80;99.90;;;;;;5074003;28;20168;-82
2023/03/26 08:55:15;;;;;;;3.10;1.90;;;9.70;99.90;;;;;;5073623;28;20236;-80
2023/03/26 08:58:01;;;;;;;2.93;1.73;;;9.60;99.90;;;;;;5055011;28;20623;-80
2023/03/26 09:00:39;;;;;;;3.50;2.20;;;9.60;99.90;;;;;;5035866;28;20183;-82
2023/03/26 09:03:20;;;;;;;5.20;2.23;;;9.50;99.90;;;;;;5052430;28;20447;-81
2023/03/26 09:06:22;;;;;;;1.30;1.20;;;9.70;99.90;;;;;;5052631;28;20598;-81
2023/03/26 09:09:13;;;;;;;2.87;1.80;;;9.80;99.90;;;;;;5052893;28;20545;-81
2023/03/26 09:11:57;;;;;;;2.67;1.70;;;9.90;99.90;;;;;;5054390;28;20187;-81
2023/03/26 09:14:41;;;;;;;3.50;2.00;;;9.90;99.90;;;;;;5054841;28;20215;-80
2023/03/26 09:17:40;;;;;;;1.40;1.23;;;10.00;99.90;;;;;;5052502;28;20663;-80
2023/03/26 09:20:44;;;;;;;5.50;2.00;;;10.00;99.90;;;;;;5052265;28;20519;-81
2023/03/26 09:23:44;;;;;;;2.72;1.80;;;10.10;99.90;;;;;;5052607;28;20209;-82
2023/03/26 09:26:45;;;;;;;4.47;2.00;;;10.10;99.90;;;;;;5070277;28;20262;-82
2023/03/26 09:29:37;;;;;;;1.65;1.55;;;10.20;99.90;;;;;;5037831;28;20289;-82
2023/03/26 09:32:41;;;;;;;7.13;2.37;;;10.30;99.90;;;;;;5058626;28;20280;-80
2023/03/26 09:35:12;;;;;;;1.70;1.60;;;10.30;99.90;;;;;;4958319;28;20656;-81
2023/03/26 09:37:40;;;;;;;2.83;1.60;;;10.30;99.90;;;;;;4961112;28;20273;-81
2023/03/26 09:40:21;;;;;;;1.67;1.57;;;10.50;99.90;;;;;;5019877;28;20194;-81
2023/03/26 09:43:14;;;;;;;3.95;2.30;;;10.70;99.90;;;;;;5070172;28;20181;-82
2023/03/26 09:45:55;;;;;;;1.75;1.65;;;10.90;99.90;;;;;;5054787;28;20270;-82
2023/03/26 09:48:48;;;;;;;3.40;2.60;;;10.90;99.90;;;;;;5072758;28;20655;-81
2023/03/26 09:51:23;;;;;;;2.72;1.95;;;11.20;99.90;;;;;;5066247;28;20650;-81
2023/03/26 09:54:06;;;;;;;4.73;2.13;;;10.70;99.90;;;;;;5093057;28;20170;-81
2023/03/26 09:56:57;;;;;;;4.07;1.77;;;10.60;99.90;;;;;;5092991;28;20178;-82
2023/03/26 09:59:38;;;;;;;2.93;1.43;;;10.50;99.90;;;;;;5062450;28;20215;-81
2023/03/26 10:02:21;;;;;;;2.60;2.10;;;10.60;99.90;;;;;;5074773;28;20631;-81
2023/03/26 10:05:06;;;;;;;3.92;1.80;;;10.70;99.90;;;;;;5074700;28;20304;-81
2023/03/26 10:08:09;;;;;;;3.37;1.90;;;10.70;99.90;;;;;;5092641;28;20166;-81
2023/03/26 10:11:01;;;;;;;2.10;1.70;;;10.80;99.90;;;;;;5092342;28;20185;-81
2023/03/26 10:13:48;;;;;;;5.20;1.55;;;10.80;99.90;;;;;;5092515;28;20174;-80
2023/03/26 10:16:41;;;;;;;1.40;1.30;;;10.80;99.90;;;;;;5092745;28;20224;-82
2023/03/26 10:19:25;;;;;;;2.15;1.33;;;10.80;99.90;;;;;;5081757;28;20159;-82
2023/03/26 10:22:00;;;;;;;1.38;1.27;;;10.80;99.90;;;;;;5053028;28;20223;-80
2023/03/26 10:24:56;;;;;;;1.35;1.25;;;10.70;99.90;;;;;;5072786;28;20205;-79
2023/03/26 10:27:36;;;;;;;2.63;1.48;;;10.70;99.90;;;;;;5072741;28;20158;-80
2023/03/26 10:30:28;;;;;;;1.90;1.50;;;10.90;99.90;;;;;;5072785;28;20246;-80
2023/03/26 10:33:02;;;;;;;1.05;1.00;;;11.20;99.90;;;;;;5055208;28;20187;-81
2023/03/26 10:36:05;;;;;;;1.48;1.30;;;11.50;99.90;;;;;;5054833;28;20182;-80
2023/03/26 10:38:45;;;;;;;2.05;1.10;;;11.60;99.90;;;;;;5054291;28;20281;-81
2023/03/26 10:41:20;;;;;;;0.80;0.80;;;11.70;98.90;;;;;;5054646;28;20178;-81
2023/03/26 10:44:13;;;;;;;0.85;0.70;;;11.70;99.10;;;;;;5054761;28;20658;-81
2023/03/26 10:47:16;;;;;;;1.23;0.77;;;12.00;97.70;;;;;;5054607;28;20650;-80
2023/03/26 10:50:05;;;;;;;0.60;0.60;;;12.00;97.30;;;;;;5073070;28;20179;-80
2023/03/26 10:52:48;;;;;;;0.63;0.63;;;11.90;97.10;;;;;;5054528;28;20262;-80
2023/03/26 10:55:18;;;;;;;0.55;0.50;;;12.00;94.20;;;;;;5073186;28;20233;-81
2023/03/26 10:57:52;;;;;;;1.27;0.82;;;11.90;92.60;;;;;;5072825;28;20164;-81
2023/03/26 11:00:24;;;;;;;2.13;0.93;;;11.90;92.30;;;;;;5054250;28;20183;-81
2023/03/26 11:03:28;;;;;;;1.55;1.45;;;12.10;92.90;;;;;;5038370;28;20237;-80
2023/03/26 11:06:14;;;;;;;0.70;0.70;;;12.00;93.20;;;;;;5054430;28;20183;-81
2023/03/26 11:08:59;;;;;;;0.75;0.75;;;12.10;94.50;;;;;;5054466;28;20190;-81
2023/03/26 11:11:47;;;;;;;1.17;0.73;;;12.50;93.70;;;;;;5054291;28;20219;-81
2023/03/26 11:14:20;;;;;;;1.23;1.15;;;12.50;92.20;;;;;;5054762;28;20628;-81
2023/03/26 11:17:09;;;;;;;0.70;0.70;;;12.30;93.60;;;;;;5054097;28;20183;-82
2023/03/26 11:19:39;;;;;;;0.68;0.65;;;12.20;94.50;;;;;;5034066;28;20183;-81
2023/03/26 11:22:24;;;;;;;0.65;0.65;;;12.40;94.80;;;;;;5042289;28;20247;-81
2023/03/26 11:25:05;;;;;;;0.90;0.90;;;12.50;94.90;;;;;;5057875;28;20237;-81
2023/03/26 11:27:58;;;;;;;1.13;0.80;;;12.60;94.20;;;;;;5056610;28;20270;-82
2023/03/26 11:30:36;;;;;;;0.77;0.77;;;12.50;93.50;;;;;;5074502;28;20249;-82
2023/03/26 11:33:09;;;;;;;0.73;0.73;;;12.40;92.70;;;;;;5074560;28;20198;-82
2023/03/26 11:35:44;;;;;;;0.85;0.80;;;12.30;93.30;;;;;;5057761;28;20183;-81
2023/03/26 11:38:16;;;;;;;1.23;1.10;;;12.40;93.40;;;;;;5072654;28;20159;-82
2023/03/26 11:40:49;;;;;;;1.25;1.10;;;12.60;93.70;;;;;;5072810;28;20651;-82
2023/03/26 11:43:27;;;;;;;0.77;0.77;;;12.60;92.80;;;;;;5071515;28;20222;-80
2023/03/26 11:45:54;;;;;;;3.40;1.30;;;12.70;92.40;;;;;;5053464;28;20177;-81
2023/03/26 11:48:28;;;;;;;0.80;0.80;;;12.60;92.50;;;;;;5053893;28;20349;-81
2023/03/26 11:51:04;;;;;;;1.00;0.90;;;12.40;92.70;;;;;;5071736;28;20251;-82
2023/03/26 11:53:33;;;;;;;1.80;0.82;;;12.20;93.50;;;;;;5072392;28;20163;-82
2023/03/26 11:56:22;;;;;;;0.65;0.65;;;12.10;94.50;;;;;;5073087;28;20175;-82
2023/03/26 11:58:55;;;;;;;1.10;0.85;;;11.80;95.50;;;;;;5072821;28;20160;-81
2023/03/26 12:01:29;;;;;;;0.80;0.80;;;11.60;96.50;;;;;;5055135;28;20175;-82
2023/03/26 12:04:44;;;;;;;0.90;0.90;;;11.40;97.30;;;;;;5055223;28;20664;-81
2023/03/26 12:07:23;;;;;;;0.63;0.63;;;11.40;98.60;;;;;;5065232;28;20180;-82
2023/03/26 12:09:57;;;;;;;1.15;0.95;;;11.30;99.90;;;;;;5071616;28;20159;-81
2023/03/26 12:12:30;;;;;;;1.38;1.27;;;11.20;99.90;;;;;;5055401;28;20892;-83
2023/03/26 12:14:57;;;;;;;0.52;0.52;;;11.20;99.90;;;;;;5053847;28;20206;-80
2023/03/26 12:17:29;;;;;;;0.90;0.90;;;11.60;99.40;;;;;;5055022;28;20221;-81
2023/03/26 12:19:55;;;;;;;1.15;0.95;;;11.90;98.20;;;;;;5052429;28;20179;-81
2023/03/26 12:22:40;;;;;;;0.93;0.52;;;11.90;96.90;;;;;;5072271;28;20756;-81
2023/03/26 12:25:19;;;;;;;0.70;0.70;;;12.70;94.40;;;;;;5053693;28;20214;-81
2023/03/26 12:28:12;;;;;;;1.02;0.90;;;12.60;95.10;;;;;;5071301;28;20170;-82
2023/03/26 12:30:40;;;;;;;1.00;0.93;;;12.40;95.20;;;;;;5072325;28;20334;-81
2023/03/26 12:33:15;;;;;;;0.88;0.88;;;12.10;97.30;;;;;;5051116;28;20190;-81
2023/03/26 12:35:41;;;;;;;0.80;0.80;;;11.70;97.90;;;;;;5068998;28;20662;-82
2023/03/26 12:38:15;;;;;;;0.80;0.80;;;11.40;99.20;;;;;;5053331;28;20207;-84
2023/03/26 12:40:42;;;;;;;1.23;1.02;;;11.80;99.30;;;;;;5060810;28;20670;-82
2023/03/26 12:43:27;;;;;;;1.30;1.20;;;12.10;97.80;;;;;;5037136;28;20280;-81
2023/03/26 12:45:57;;;;;;;3.13;1.20;;;12.10;97.60;;;;;;5071592;28;20183;-81
2023/03/26 12:48:25;;;;;;;4.35;2.00;;;12.50;99.90;;;;;;5070924;28;20190;-81
2023/03/26 12:50:56;;;;;;;2.22;1.38;;;12.40;99.90;;;;;;5071734;28;20232;-82
2023/03/26 12:53:48;;;;;;;1.63;1.40;;;13.50;99.90;;;;;;5066053;28;20257;-81
2023/03/26 12:57:03;;;;;;;2.08;1.30;;;12.80;99.90;;;;;;5000222;28;20196;-81
2023/03/26 12:59:35;;;;;;;1.48;1.23;;;12.60;95.00;;;;;;4954130;28;20687;-83
2023/03/26 13:02:31;;;;;;;1.10;1.00;;;12.80;99.90;;;;;;5029067;28;20191;-81
2023/03/26 13:05:18;;;;;;;2.38;1.40;;;12.60;96.60;;;;;;5065452;28;20546;-82
2023/03/26 13:07:44;;;;;;;1.23;1.08;;;;;;;;;;5052228;28;20218;-82
2023/03/26 13:10:10;;;;;;;1.20;1.10;;;;;;;;;;5052367;28;20675;-82
2023/03/26 13:12:52;;;;;;;1.52;1.27;;;12.50;96.70;;;;;;5051005;28;20566;-82
2023/03/26 13:15:20;;;;;;;1.00;1.00;;;12.20;99.90;;;;;;5049928;28;20186;-82
2023/03/26 13:18:15;;;;;;;4.25;1.70;;;12.80;99.90;;;;;;5061151;28;20652;-82
2023/03/26 13:21:27;;;;;;;1.33;1.23;;;13.50;99.90;;;;;;5058064;28;20284;-82
2023/03/26 13:24:01;;;;;;;0.43;0.43;;;13.10;99.60;;;;;;5060429;28;20216;-82
2023/03/26 13:26:27;;;;;;;1.10;0.77;;;;;;;;;;5051796;28;20241;-83
2023/03/26 13:28:53;;;;;;;0.70;0.60;;;;;;;;;;5070034;28;20215;-82
2023/03/26 13:31:26;;;;;;;0.90;0.90;;;;;;;;;;5051883;28;20190;-83
2023/03/26 13:34:13;;;;;;;0.93;0.77;;;12.00;92.00;;;;;;5066361;28;20734;-82